sensor_id;sensor_type;location;lat;lon;timestamp;pressure;altitude;pressure_sealevel;temperature;humidity
59367;BME280;45163;47.690;11.770;2023-02-12T00:01:10;94989.47;;;-0.70;100.00
59367;BME280;45163;47.690;11.770;2023-02-12T00:03:37;94985.84;;;-0.74;100.00
59367;BME280;45163;47.690;11.770;2023-02-12T00:06:04;94987.41;;;-0.73;100.00
59367;BME280;45163;47.690;11.770;2023-02-12T00:08:30;94983.13;;;-0.65;100.00
59367;BME280;45163;47.690;11.770;2023-02-12T00:10:56;94971.63;;;-0.66;100.00
59367;BME280;45163;47.690;11.770;2023-02-12T00:13:22;94980.63;;;-0.70;100.00
59367;BME280;45163;47.690;11.770;2023-02-12T00:15:48;94986.97;;;-0.75;100.00
59367;BME280;45163;47.690;11.770;2023-02-12T00:18:14;94992.34;;;-0.84;100.00
59367;BME280;45163;47.690;11.770;2023-02-12T00:20:40;94992.34;;;-0.92;100.00
59367;BME280;45163;47.690;11.770;2023-02-12T00:23:06;94995.84;;;-0.92;100.00
59367;BME280;45163;47.690;11.770;2023-02-12T00:25:33;94994.09;;;-0.96;100.00
59367;BME280;45163;47.690;11.770;2023-02-12T00:27:59;94998.38;;;-0.95;100.00
59367;BME280;45163;47.690;11.770;2023-02-12T00:30:25;95004.19;;;-0.93;100.00
59367;BME280;45163;47.690;11.770;2023-02-12T00:32:51;95003.91;;;-0.92;100.00
59367;BME280;45163;47.690;11.770;2023-02-12T00:35:17;95007.03;;;-0.90;100.00
59367;BME280;45163;47.690;11.770;2023-02-12T00:37:43;95010.34;;;-0.93;100.00
59367;BME280;45163;47.690;11.770;2023-02-12T00:40:09;95018.38;;;-0.93;100.00
59367;BME280;45163;47.690;11.770;2023-02-12T00:42:35;95022.50;;;-0.95;100.00
59367;BME280;45163;47.690;11.770;2023-02-12T00:45:01;95020.91;;;-0.96;100.00
59367;BME280;45163;47.690;11.770;2023-02-12T00:47:27;95009.88;;;-0.95;100.00
59367;BME280;45163;47.690;11.770;2023-02-12T00:49:53;95017.94;;;-0.95;100.00
59367;BME280;45163;47.690;11.770;2023-02-12T00:52:19;95014.91;;;-0.93;100.00
59367;BME280;45163;47.690;11.770;2023-02-12T00:54:45;95009.25;;;-0.92;100.00
59367;BME280;45163;47.690;11.770;2023-02-12T00:57:11;95012.38;;;-0.90;100.00
59367;BME280;45163;47.690;11.770;2023-02-12T00:59:37;95007.81;;;-0.89;100.00
59367;BME280;45163;47.690;11.770;2023-02-12T01:02:04;95003.22;;;-0.89;100.00
59367;BME280;45163;47.690;11.770;2023-02-12T01:04:30;95004.84;;;-0.88;100.00
59367;BME280;45163;47.690;11.770;2023-02-12T01:06:56;95006.56;;;-0.92;100.00
59367;BME280;45163;47.690;11.770;2023-02-12T01:09:22;95010.81;;;-0.91;100.00
59367;BME280;45163;47.690;11.770;2023-02-12T01:11:48;95019.13;;;-0.84;100.00
59367;BME280;45163;47.690;11.770;2023-02-12T01:14:14;95020.41;;;-0.81;100.00
59367;BME280;45163;47.690;11.770;2023-02-12T01:16:40;95023.41;;;-0.83;100.00
59367;BME280;45163;47.690;11.770;2023-02-12T01:19:06;95016.31;;;-0.79;100.00
59367;BME280;45163;47.690;11.770;2023-02-12T01:21:33;95006.03;;;-0.77;100.00
59367;BME280;45163;47.690;11.770;2023-02-12T01:24:00;95009.03;;;-0.78;100.00
59367;BME280;45163;47.690;11.770;2023-02-12T01:26:27;95004.81;;;-0.79;100.00
59367;BME280;45163;47.690;11.770;2023-02-12T01:28:56;95001.63;;;-0.81;100.00
59367;BME280;45163;47.690;11.770;2023-02-12T01:31:25;94997.53;;;-0.79;100.00
59367;BME280;45163;47.690;11.770;2023-02-12T01:33:54;94997.22;;;-0.77;100.00
59367;BME280;45163;47.690;11.770;2023-02-12T01:36:20;94991.53;;;-0.76;100.00
59367;BME280;45163;47.690;11.770;2023-02-12T01:38:47;95012.66;;;-0.74;100.00
59367;BME280;45163;47.690;11.770;2023-02-12T01:41:16;95006.94;;;-0.64;100.00
59367;BME280;45163;47.690;11.770;2023-02-12T01:43:43;95006.66;;;-0.71;100.00
59367;BME280;45163;47.690;11.770;2023-02-12T01:46:12;95008.09;;;-0.73;100.00
59367;BME280;45163;47.690;11.770;2023-02-12T01:48:41;95004.63;;;-0.74;100.00
59367;BME280;45163;47.690;11.770;2023-02-12T01:51:11;95001.47;;;-0.76;100.00
59367;BME280;45163;47.690;11.770;2023-02-12T01:53:41;95002.09;;;-0.70;100.00
59367;BME280;45163;47.690;11.770;2023-02-12T01:56:09;94997.22;;;-0.77;100.00
59367;BME280;45163;47.690;11.770;2023-02-12T01:58:38;95000.38;;;-0.75;100.00
59367;BME280;45163;47.690;11.770;2023-02-12T02:01:08;95008.56;;;-0.80;100.00
59367;BME280;45163;47.690;11.770;2023-02-12T02:03:38;95003.06;;;-0.84;100.00
59367;BME280;45163;47.690;11.770;2023-02-12T02:06:13;94998.84;;;-0.93;100.00
59367;BME280;45163;47.690;11.770;2023-02-12T02:08:41;94998.06;;;-1.03;100.00
59367;BME280;45163;47.690;11.770;2023-02-12T02:11:07;95008.97;;;-1.08;100.00
59367;BME280;45163;47.690;11.770;2023-02-12T02:13:53;95003.91;;;-1.09;100.00
59367;BME280;45163;47.690;11.770;2023-02-12T02:16:41;95007.06;;;-1.07;100.00
59367;BME280;45163;47.690;11.770;2023-02-12T02:39:18;94991.69;;;-0.81;100.00
59367;BME280;45163;47.690;11.770;2023-02-12T02:44:53;94992.03;;;-0.82;100.00
59367;BME280;45163;47.690;11.770;2023-02-12T02:47:23;94984.00;;;-0.82;100.00
59367;BME280;45163;47.690;11.770;2023-02-12T02:49:56;94980.66;;;-0.79;100.00
59367;BME280;45163;47.690;11.770;2023-02-12T02:52:34;94974.97;;;-0.78;100.00
59367;BME280;45163;47.690;11.770;2023-02-12T02:55:06;94962.34;;;-0.77;100.00
59367;BME280;45163;47.690;11.770;2023-02-12T02:57:49;94980.00;;;-0.76;100.00
59367;BME280;45163;47.690;11.770;2023-02-12T03:00:23;94973.56;;;-0.75;100.00
59367;BME280;45163;47.690;11.770;2023-02-12T03:02:59;94969.63;;;-0.78;100.00
59367;BME280;45163;47.690;11.770;2023-02-12T03:05:31;94969.81;;;-0.83;100.00
59367;BME280;45163;47.690;11.770;2023-02-12T03:08:04;94974.38;;;-0.83;100.00
59367;BME280;45163;47.690;11.770;2023-02-12T03:10:50;94970.59;;;-0.82;100.00
59367;BME280;45163;47.690;11.770;2023-02-12T03:13:23;94968.06;;;-0.79;100.00
59367;BME280;45163;47.690;11.770;2023-02-12T03:15:59;94965.63;;;-0.71;100.00
59367;BME280;45163;47.690;11.770;2023-02-12T03:18:35;94978.75;;;-0.70;100.00
59367;BME280;45163;47.690;11.770;2023-02-12T03:21:11;94977.47;;;-0.72;100.00
59367;BME280;45163;47.690;11.770;2023-02-12T03:23:50;94983.16;;;-0.74;100.00
59367;BME280;45163;47.690;11.770;2023-02-12T03:26:36;94992.41;;;-0.63;100.00
59367;BME280;45163;47.690;11.770;2023-02-12T03:29:03;94999.22;;;-0.65;100.00
59367;BME280;45163;47.690;11.770;2023-02-12T03:31:37;95002.25;;;-0.67;100.00
59367;BME280;45163;47.690;11.770;2023-02-12T03:34:20;95006.34;;;-0.69;100.00
59367;BME280;45163;47.690;11.770;2023-02-12T03:37:07;95009.00;;;-0.69;100.00
59367;BME280;45163;47.690;11.770;2023-02-12T03:45:03;95038.69;;;-0.74;100.00
59367;BME280;45163;47.690;11.770;2023-02-12T03:47:46;95043.38;;;-0.71;100.00
59367;BME280;45163;47.690;11.770;2023-02-12T03:50:38;95037.25;;;-0.72;100.00
59367;BME280;45163;47.690;11.770;2023-02-12T03:53:05;95030.47;;;-0.69;100.00
59367;BME280;45163;47.690;11.770;2023-02-12T03:55:33;95045.44;;;-0.68;100.00
59367;BME280;45163;47.690;11.770;2023-02-12T03:58:02;95042.47;;;-0.67;100.00
59367;BME280;45163;47.690;11.770;2023-02-12T04:00:32;95046.69;;;-0.66;100.00
59367;BME280;45163;47.690;11.770;2023-02-12T04:02:58;95035.97;;;-0.66;100.00
59367;BME280;45163;47.690;11.770;2023-02-12T04:05:26;95036.91;;;-0.62;100.00
59367;BME280;45163;47.690;11.770;2023-02-12T04:07:53;95042.91;;;-0.65;100.00
59367;BME280;45163;47.690;11.770;2023-02-12T04:10:31;95033.75;;;-0.64;100.00
59367;BME280;45163;47.690;11.770;2023-02-12T04:13:18;95027.75;;;-0.61;100.00
59367;BME280;45163;47.690;11.770;2023-02-12T04:18:47;95035.13;;;-0.49;100.00
59367;BME280;45163;47.690;11.770;2023-02-12T04:26:48;95022.69;;;-0.54;100.00
59367;BME280;45163;47.690;11.770;2023-02-12T04:29:30;95030.72;;;-0.54;100.00
59367;BME280;45163;47.690;11.770;2023-02-12T04:34:39;95031.19;;;-0.52;100.00
59367;BME280;45163;47.690;11.770;2023-02-12T04:37:15;95034.19;;;-0.53;100.00
59367;BME280;45163;47.690;11.770;2023-02-12T04:39:43;95022.34;;;-0.52;100.00
59367;BME280;45163;47.690;11.770;2023-02-12T04:42:10;95022.84;;;-0.50;100.00
59367;BME280;45163;47.690;11.770;2023-02-12T04:44:38;95024.56;;;-0.45;100.00
59367;BME280;45163;47.690;11.770;2023-02-12T04:47:04;95018.53;;;-0.42;100.00
59367;BME280;45163;47.690;11.770;2023-02-12T04:49:30;95017.59;;;-0.46;100.00
59367;BME280;45163;47.690;11.770;2023-02-12T04:51:56;95023.44;;;-0.44;100.00
59367;BME280;45163;47.690;11.770;2023-02-12T04:54:23;95026.13;;;-0.44;100.00
59367;BME280;45163;47.690;11.770;2023-02-12T04:56:49;95034.31;;;-0.41;100.00
59367;BME280;45163;47.690;11.770;2023-02-12T04:59:16;95034.63;;;-0.42;100.00
59367;BME280;45163;47.690;11.770;2023-02-12T05:01:42;95028.81;;;-0.44;100.00
59367;BME280;45163;47.690;11.770;2023-02-12T05:04:11;95033.03;;;-0.43;100.00
59367;BME280;45163;47.690;11.770;2023-02-12T05:06:38;95026.25;;;-0.41;100.00
59367;BME280;45163;47.690;11.770;2023-02-12T05:09:05;95023.25;;;-0.39;100.00
59367;BME280;45163;47.690;11.770;2023-02-12T05:11:32;95026.22;;;-0.32;100.00
59367;BME280;45163;47.690;11.770;2023-02-12T05:13:58;95027.94;;;-0.28;100.00
59367;BME280;45163;47.690;11.770;2023-02-12T05:16:24;95024.78;;;-0.30;100.00
59367;BME280;45163;47.690;11.770;2023-02-12T05:18:50;95028.56;;;-0.31;100.00
59367;BME280;45163;47.690;11.770;2023-02-12T05:21:16;95028.91;;;-0.32;100.00
59367;BME280;45163;47.690;11.770;2023-02-12T05:23:42;95029.34;;;-0.30;100.00
59367;BME280;45163;47.690;11.770;2023-02-12T05:26:15;95045.16;;;-0.29;100.00
59367;BME280;45163;47.690;11.770;2023-02-12T05:28:41;95040.81;;;-0.12;100.00
59367;BME280;45163;47.690;11.770;2023-02-12T05:31:09;95044.28;;;-0.12;100.00
59367;BME280;45163;47.690;11.770;2023-02-12T05:33:35;95033.25;;;-0.19;100.00
59367;BME280;45163;47.690;11.770;2023-02-12T05:36:07;95033.25;;;-0.19;100.00
59367;BME280;45163;47.690;11.770;2023-02-12T05:38:34;95044.44;;;-0.17;100.00
59367;BME280;45163;47.690;11.770;2023-02-12T05:41:05;95047.47;;;-0.18;100.00
59367;BME280;45163;47.690;11.770;2023-02-12T05:43:31;95048.25;;;-0.18;100.00
59367;BME280;45163;47.690;11.770;2023-02-12T05:45:58;95053.31;;;-0.16;100.00
59367;BME280;45163;47.690;11.770;2023-02-12T05:48:25;95052.34;;;-0.12;100.00
59367;BME280;45163;47.690;11.770;2023-02-12T05:50:51;95052.34;;;-0.12;100.00
59367;BME280;45163;47.690;11.770;2023-02-12T05:53:17;95053.13;;;-0.11;100.00
59367;BME280;45163;47.690;11.770;2023-02-12T05:55:43;95049.78;;;-0.08;100.00
59367;BME280;45163;47.690;11.770;2023-02-12T05:58:09;95049.31;;;-0.10;100.00
59367;BME280;45163;47.690;11.770;2023-02-12T06:00:35;95051.06;;;-0.14;100.00
59367;BME280;45163;47.690;11.770;2023-02-12T06:03:01;95058.00;;;-0.13;100.00
59367;BME280;45163;47.690;11.770;2023-02-12T06:05:28;95061.94;;;-0.11;100.00
59367;BME280;45163;47.690;11.770;2023-02-12T06:07:54;95057.84;;;-0.08;100.00
59367;BME280;45163;47.690;11.770;2023-02-12T06:10:20;95069.81;;;-0.06;100.00
59367;BME280;45163;47.690;11.770;2023-02-12T06:12:46;95063.31;;;-0.05;100.00
59367;BME280;45163;47.690;11.770;2023-02-12T06:15:11;95073.28;;;-0.05;100.00
59367;BME280;45163;47.690;11.770;2023-02-12T06:17:37;95074.06;;;-0.05;100.00
59367;BME280;45163;47.690;11.770;2023-02-12T06:20:04;95068.38;;;-0.03;100.00
59367;BME280;45163;47.690;11.770;2023-02-12T06:22:30;95080.56;;;-0.06;100.00
59367;BME280;45163;47.690;11.770;2023-02-12T06:24:56;95073.28;;;-0.05;100.00
59367;BME280;45163;47.690;11.770;2023-02-12T06:27:22;95075.03;;;-0.09;100.00
59367;BME280;45163;47.690;11.770;2023-02-12T06:29:48;95080.41;;;-0.09;100.00
59367;BME280;45163;47.690;11.770;2023-02-12T06:32:14;95087.22;;;-0.12;100.00
59367;BME280;45163;47.690;11.770;2023-02-12T06:34:40;95080.41;;;-0.09;100.00
59367;BME280;45163;47.690;11.770;2023-02-12T06:37:06;95077.09;;;-0.06;100.00
59367;BME280;45163;47.690;11.770;2023-02-12T06:39:31;95079.91;;;-0.03;100.00
59367;BME280;45163;47.690;11.770;2023-02-12T06:41:57;95077.38;;;0.01;100.00
59367;BME280;45163;47.690;11.770;2023-02-12T06:44:23;95080.84;;;0.02;100.00
59367;BME280;45163;47.690;11.770;2023-02-12T06:46:49;95083.66;;;0.05;100.00
59367;BME280;45163;47.690;11.770;2023-02-12T06:49:15;95087.91;;;0.06;100.00
59367;BME280;45163;47.690;11.770;2023-02-12T06:51:41;95084.13;;;0.07;100.00
59367;BME280;45163;47.690;11.770;2023-02-12T06:54:12;95090.75;;;0.10;100.00
59367;BME280;45163;47.690;11.770;2023-02-12T06:56:39;95091.19;;;0.12;100.00
59367;BME280;45163;47.690;11.770;2023-02-12T06:59:05;95092.78;;;0.13;100.00
59367;BME280;45163;47.690;11.770;2023-02-12T07:01:31;95095.59;;;0.16;100.00
59367;BME280;45163;47.690;11.770;2023-02-12T07:03:59;95100.00;;;0.21;100.00
59367;BME280;45163;47.690;11.770;2023-02-12T07:06:27;95097.91;;;0.27;100.00
59367;BME280;45163;47.690;11.770;2023-02-12T07:08:54;95099.63;;;0.31;100.00
59367;BME280;45163;47.690;11.770;2023-02-12T07:11:28;95091.84;;;0.38;100.00
59367;BME280;45163;47.690;11.770;2023-02-12T07:13:54;95098.59;;;0.44;100.00
59367;BME280;45163;47.690;11.770;2023-02-12T07:16:21;95090.03;;;0.51;100.00
59367;BME280;45163;47.690;11.770;2023-02-12T07:18:47;95092.72;;;0.51;100.00
59367;BME280;45163;47.690;11.770;2023-02-12T07:21:14;95090.97;;;0.55;100.00
59367;BME280;45163;47.690;11.770;2023-02-12T07:23:41;95098.34;;;0.58;100.00
59367;BME280;45163;47.690;11.770;2023-02-12T07:26:11;95094.22;;;0.61;100.00
59367;BME280;45163;47.690;11.770;2023-02-12T07:28:38;95092.47;;;0.65;100.00
59367;BME280;45163;47.690;11.770;2023-02-12T07:31:08;95097.19;;;0.68;100.00
59367;BME280;45163;47.690;11.770;2023-02-12T07:33:35;95097.78;;;0.73;100.00
59367;BME280;45163;47.690;11.770;2023-02-12T07:36:03;95097.25;;;0.80;100.00
59367;BME280;45163;47.690;11.770;2023-02-12T07:38:30;95097.97;;;0.89;100.00
59367;BME280;45163;47.690;11.770;2023-02-12T07:41:12;95098.03;;;1.02;100.00
59367;BME280;45163;47.690;11.770;2023-02-12T07:43:40;95093.94;;;1.16;100.00
59367;BME280;45163;47.690;11.770;2023-02-12T07:46:11;95090.63;;;1.32;100.00
59367;BME280;45163;47.690;11.770;2023-02-12T07:48:38;95097.84;;;1.40;100.00
59367;BME280;45163;47.690;11.770;2023-02-12T07:51:06;95090.94;;;1.63;100.00
59367;BME280;45163;47.690;11.770;2023-02-12T07:53:32;95079.41;;;1.75;100.00
59367;BME280;45163;47.690;11.770;2023-02-12T07:58:31;95074.03;;;2.48;100.00
59367;BME280;45163;47.690;11.770;2023-02-12T08:00:57;95083.06;;;3.09;100.00
59367;BME280;45163;47.690;11.770;2023-02-12T08:03:23;95070.59;;;3.92;100.00
59367;BME280;45163;47.690;11.770;2023-02-12T08:05:49;95065.09;;;4.71;100.00
59367;BME280;45163;47.690;11.770;2023-02-12T08:08:15;95065.72;;;5.19;100.00
59367;BME280;45163;47.690;11.770;2023-02-12T08:10:41;95060.13;;;5.50;100.00
59367;BME280;45163;47.690;11.770;2023-02-12T08:13:07;95055.22;;;5.37;100.00
59367;BME280;45163;47.690;11.770;2023-02-12T08:15:33;95061.25;;;5.49;100.00
59367;BME280;45163;47.690;11.770;2023-02-12T08:17:59;95050.31;;;5.88;100.00
59367;BME280;45163;47.690;11.770;2023-02-12T08:20:26;95041.16;;;6.69;100.00
59367;BME280;45163;47.690;11.770;2023-02-12T08:22:52;95040.16;;;7.11;100.00
59367;BME280;45163;47.690;11.770;2023-02-12T08:25:18;95041.75;;;7.90;100.00
59367;BME280;45163;47.690;11.770;2023-02-12T08:27:44;95033.34;;;8.06;100.00
59367;BME280;45163;47.690;11.770;2023-02-12T08:30:10;95029.09;;;7.30;100.00
59367;BME280;45163;47.690;11.770;2023-02-12T08:32:36;95024.13;;;6.72;100.00
59367;BME280;45163;47.690;11.770;2023-02-12T08:35:02;95028.88;;;6.26;100.00
59367;BME280;45163;47.690;11.770;2023-02-12T08:37:28;95029.31;;;5.59;100.00
59367;BME280;45163;47.690;11.770;2023-02-12T08:39:54;95031.94;;;5.32;100.00
59367;BME280;45163;47.690;11.770;2023-02-12T08:42:20;95032.38;;;5.15;100.00
59367;BME280;45163;47.690;11.770;2023-02-12T08:44:47;95030.94;;;5.21;100.00
59367;BME280;45163;47.690;11.770;2023-02-12T08:47:13;95028.06;;;5.33;100.00
59367;BME280;45163;47.690;11.770;2023-02-12T08:49:39;95041.69;;;5.37;100.00
59367;BME280;45163;47.690;11.770;2023-02-12T08:52:05;95026.94;;;5.34;100.00
59367;BME280;45163;47.690;11.770;2023-02-12T08:54:31;95025.59;;;6.13;100.00
59367;BME280;45163;47.690;11.770;2023-02-12T08:56:59;95026.75;;;6.65;100.00
59367;BME280;45163;47.690;11.770;2023-02-12T08:59:26;95020.94;;;7.30;100.00
59367;BME280;45163;47.690;11.770;2023-02-12T09:01:52;95026.72;;;8.07;100.00
59367;BME280;45163;47.690;11.770;2023-02-12T09:04:21;95029.06;;;8.56;95.82
59367;BME280;45163;47.690;11.770;2023-02-12T09:06:48;95027.84;;;9.16;95.66
59367;BME280;45163;47.690;11.770;2023-02-12T09:09:14;95032.38;;;10.31;96.51
59367;BME280;45163;47.690;11.770;2023-02-12T09:11:41;95018.34;;;10.43;84.38
59367;BME280;45163;47.690;11.770;2023-02-12T09:14:10;95019.44;;;10.92;80.23
59367;BME280;45163;47.690;11.770;2023-02-12T09:16:37;95010.75;;;11.15;69.47
59367;BME280;45163;47.690;11.770;2023-02-12T09:19:04;95011.59;;;11.05;70.44
59367;BME280;45163;47.690;11.770;2023-02-12T09:21:31;95012.84;;;10.76;61.93
59367;BME280;45163;47.690;11.770;2023-02-12T09:23:57;95013.00;;;11.42;64.96
59367;BME280;45163;47.690;11.770;2023-02-12T09:26:24;95014.34;;;10.98;59.25
59367;BME280;45163;47.690;11.770;2023-02-12T09:28:53;95009.75;;;11.61;63.39
59367;BME280;45163;47.690;11.770;2023-02-12T09:31:22;95016.84;;;11.55;56.32
59367;BME280;45163;47.690;11.770;2023-02-12T09:33:52;95011.59;;;11.82;64.14
59367;BME280;45163;47.690;11.770;2023-02-12T09:36:19;95010.88;;;12.34;55.46
59367;BME280;45163;47.690;11.770;2023-02-12T09:38:46;95010.72;;;12.52;51.97
59367;BME280;45163;47.690;11.770;2023-02-12T09:41:44;95009.19;;;13.26;53.68
59367;BME280;45163;47.690;11.770;2023-02-12T09:47:22;95011.00;;;14.48;48.47
59367;BME280;45163;47.690;11.770;2023-02-12T09:52:48;95014.44;;;15.59;46.63
59367;BME280;45163;47.690;11.770;2023-02-12T09:55:17;95014.41;;;15.42;42.85
59367;BME280;45163;47.690;11.770;2023-02-12T09:57:45;95017.44;;;15.28;44.01
59367;BME280;45163;47.690;11.770;2023-02-12T10:00:18;95016.63;;;16.40;46.47
59367;BME280;45163;47.690;11.770;2023-02-12T10:02:49;95014.81;;;15.01;37.69
59367;BME280;45163;47.690;11.770;2023-02-12T10:05:40;95023.03;;;16.17;34.70
59367;BME280;45163;47.690;11.770;2023-02-12T10:26:40;95027.69;;;17.18;30.41
59367;BME280;45163;47.690;11.770;2023-02-12T10:29:21;95026.38;;;18.70;26.16
59367;BME280;45163;47.690;11.770;2023-02-12T10:31:57;95029.44;;;17.54;30.22
59367;BME280;45163;47.690;11.770;2023-02-12T10:34:31;95030.78;;;18.42;28.04
59367;BME280;45163;47.690;11.770;2023-02-12T10:40:30;95016.13;;;18.92;26.24
59367;BME280;45163;47.690;11.770;2023-02-12T10:43:00;95023.03;;;19.10;26.73
59367;BME280;45163;47.690;11.770;2023-02-12T10:45:32;95018.06;;;18.45;25.91
59367;BME280;45163;47.690;11.770;2023-02-12T10:48:36;95013.88;;;18.53;25.72
59367;BME280;45163;47.690;11.770;2023-02-12T10:56:20;94994.28;;;18.47;29.22
59367;BME280;45163;47.690;11.770;2023-02-12T11:01:28;94984.41;;;17.57;31.08
59367;BME280;45163;47.690;11.770;2023-02-12T11:03:57;94996.63;;;18.23;29.84
59367;BME280;45163;47.690;11.770;2023-02-12T11:06:26;94990.50;;;18.66;29.93
59367;BME280;45163;47.690;11.770;2023-02-12T11:08:53;94993.09;;;18.96;31.77
59367;BME280;45163;47.690;11.770;2023-02-12T11:11:27;94980.38;;;19.42;29.24
59367;BME280;45163;47.690;11.770;2023-02-12T11:14:02;94981.97;;;19.65;27.98
59367;BME280;45163;47.690;11.770;2023-02-12T11:16:50;94978.41;;;19.64;30.09
59367;BME280;45163;47.690;11.770;2023-02-12T11:19:27;94978.31;;;18.64;30.43
59367;BME280;45163;47.690;11.770;2023-02-12T11:22:06;94975.38;;;18.93;28.69
59367;BME280;45163;47.690;11.770;2023-02-12T11:24:36;94965.28;;;20.27;26.77
59367;BME280;45163;47.690;11.770;2023-02-12T11:29:44;94963.88;;;20.72;26.97
59367;BME280;45163;47.690;11.770;2023-02-12T11:32:18;94966.44;;;19.99;27.54
59367;BME280;45163;47.690;11.770;2023-02-12T11:35:04;94964.84;;;20.29;27.40
59367;BME280;45163;47.690;11.770;2023-02-12T11:37:32;94964.22;;;19.40;29.44
59367;BME280;45163;47.690;11.770;2023-02-12T11:40:01;94974.03;;;19.85;28.70
59367;BME280;45163;47.690;11.770;2023-02-12T11:42:28;94973.50;;;19.47;30.77
59367;BME280;45163;47.690;11.770;2023-02-12T11:44:58;94971.41;;;19.60;30.56
59367;BME280;45163;47.690;11.770;2023-02-12T11:47:30;94968.59;;;19.29;31.08
59367;BME280;45163;47.690;11.770;2023-02-12T11:50:21;94964.69;;;19.61;28.85
59367;BME280;45163;47.690;11.770;2023-02-12T11:52:50;94962.06;;;19.88;31.25
59367;BME280;45163;47.690;11.770;2023-02-12T11:55:27;94964.78;;;19.13;32.05
59367;BME280;45163;47.690;11.770;2023-02-12T12:01:31;94952.31;;;19.75;32.57
59367;BME280;45163;47.690;11.770;2023-02-12T12:03:29;94956.41;;;18.82;32.37
59367;BME280;45163;47.690;11.770;2023-02-12T12:08:48;94955.13;;;18.49;34.48
59367;BME280;45163;47.690;11.770;2023-02-12T12:11:20;94949.47;;;17.50;35.97
59367;BME280;45163;47.690;11.770;2023-02-12T12:14:02;94950.63;;;16.33;39.08
59367;BME280;45163;47.690;11.770;2023-02-12T12:19:23;94940.06;;;15.06;43.12
59367;BME280;45163;47.690;11.770;2023-02-12T12:22:17;94928.84;;;14.97;44.37
59367;BME280;45163;47.690;11.770;2023-02-12T12:25:04;94938.00;;;14.90;45.26
59367;BME280;45163;47.690;11.770;2023-02-12T12:30:59;94933.44;;;13.05;48.94
59367;BME280;45163;47.690;11.770;2023-02-12T12:38:58;94936.41;;;16.51;42.11
59367;BME280;45163;47.690;11.770;2023-02-12T12:44:39;94934.97;;;17.33;38.61
59367;BME280;45163;47.690;11.770;2023-02-12T12:52:56;94930.75;;;15.56;39.71
59367;BME280;45163;47.690;11.770;2023-02-12T13:05:54;94925.56;;;16.76;36.64
59367;BME280;45163;47.690;11.770;2023-02-12T13:13:53;94919.56;;;16.16;37.04
59367;BME280;45163;47.690;11.770;2023-02-12T13:16:47;94924.22;;;16.35;37.23
59367;BME280;45163;47.690;11.770;2023-02-12T13:22:02;94925.19;;;16.74;36.81
59367;BME280;45163;47.690;11.770;2023-02-12T13:24:55;94921.47;;;16.81;36.24
59367;BME280;45163;47.690;11.770;2023-02-12T13:27:31;94912.50;;;17.48;35.56
59367;BME280;45163;47.690;11.770;2023-02-12T13:30:20;94926.78;;;17.30;34.96
59367;BME280;45163;47.690;11.770;2023-02-12T13:35:41;94928.59;;;17.49;35.50
59367;BME280;45163;47.690;11.770;2023-02-12T13:38:18;94916.06;;;16.61;36.80
59367;BME280;45163;47.690;11.770;2023-02-12T13:40:46;94916.56;;;16.27;38.05
59367;BME280;45163;47.690;11.770;2023-02-12T13:43:35;94921.28;;;15.93;39.72
59367;BME280;45163;47.690;11.770;2023-02-12T13:51:48;94917.06;;;15.89;39.19
59367;BME280;45163;47.690;11.770;2023-02-12T13:54:39;94911.47;;;16.25;38.74
59367;BME280;45163;47.690;11.770;2023-02-12T13:57:13;94918.06;;;14.86;42.44
59367;BME280;45163;47.690;11.770;2023-02-12T13:59:43;94913.25;;;14.70;43.64
59367;BME280;45163;47.690;11.770;2023-02-12T14:07:43;94920.63;;;14.07;46.11
59367;BME280;45163;47.690;11.770;2023-02-12T14:10:25;94913.28;;;13.19;47.38
59367;BME280;45163;47.690;11.770;2023-02-12T14:12:53;94916.84;;;12.48;50.43
59367;BME280;45163;47.690;11.770;2023-02-12T14:15:38;94919.75;;;12.33;52.86
59367;BME280;45163;47.690;11.770;2023-02-12T14:18:21;94913.13;;;11.79;56.75
59367;BME280;45163;47.690;11.770;2023-02-12T14:20:47;94906.88;;;11.19;59.42
59367;BME280;45163;47.690;11.770;2023-02-12T14:23:33;94916.75;;;10.95;62.80
59367;BME280;45163;47.690;11.770;2023-02-12T14:28:40;94911.16;;;11.23;64.49
59367;BME280;45163;47.690;11.770;2023-02-12T14:33:44;94908.00;;;10.19;69.62
59367;BME280;45163;47.690;11.770;2023-02-12T14:38:58;94906.88;;;9.88;73.38
59367;BME280;45163;47.690;11.770;2023-02-12T14:41:30;94904.53;;;9.69;73.89
59367;BME280;45163;47.690;11.770;2023-02-12T14:46:47;94906.06;;;10.09;72.16
59367;BME280;45163;47.690;11.770;2023-02-12T14:49:27;94907.25;;;9.55;76.69
59367;BME280;45163;47.690;11.770;2023-02-12T14:52:18;94899.09;;;9.58;76.92
59367;BME280;45163;47.690;11.770;2023-02-12T14:57:24;94913.88;;;9.50;78.11
59367;BME280;45163;47.690;11.770;2023-02-12T15:00:41;94913.06;;;9.21;81.31
59367;BME280;45163;47.690;11.770;2023-02-12T15:02:44;94921.25;;;9.28;82.69
59367;BME280;45163;47.690;11.770;2023-02-12T15:05:27;94918.91;;;9.27;81.54
59367;BME280;45163;47.690;11.770;2023-02-12T15:07:59;94915.78;;;9.21;82.38
59367;BME280;45163;47.690;11.770;2023-02-12T15:10:31;94913.75;;;8.96;83.34
59367;BME280;45163;47.690;11.770;2023-02-12T15:13:12;94911.78;;;8.83;85.71
59367;BME280;45163;47.690;11.770;2023-02-12T15:21:24;94918.81;;;7.63;96.10
59367;BME280;45163;47.690;11.770;2023-02-12T15:24:07;94918.53;;;7.31;99.58
59367;BME280;45163;47.690;11.770;2023-02-12T15:26:40;94920.28;;;7.12;100.00
59367;BME280;45163;47.690;11.770;2023-02-12T15:29:17;94926.06;;;7.07;100.00
59367;BME280;45163;47.690;11.770;2023-02-12T15:31:49;94916.81;;;6.78;100.00
59367;BME280;45163;47.690;11.770;2023-02-12T15:34:19;94920.25;;;6.41;100.00
59367;BME280;45163;47.690;11.770;2023-02-12T15:36:47;94921.53;;;6.21;100.00
59367;BME280;45163;47.690;11.770;2023-02-12T15:39:17;94919.72;;;6.02;100.00
59367;BME280;45163;47.690;11.770;2023-02-12T15:41:45;94924.44;;;5.82;100.00